Armour, South Dakota
Current Conditions -  °F | °C
As of 3:53 AM on Wednesday 22 Oct 2014 (Local Time) from KMHE Reporting Station
Clear Clear  
Wind Chill: 57°   Ceiling: Unl
Heat Index: 57°   Visibility: 10mi
Dew Point: 41°   Wind: 18mph
Humidity: 55%   Direction: 150°SSE
Pressure: 29.9"   Gusts: NA
Location:  43.32°N, 98.35°W
Report Text: KMHE 220853Z AUTO 15016KT 10SM CLR 14/05 A2990 RMK AO2 SLP119 T01390050 58006 $
Loading
Personal Weather Stations






























Interactive Weather Map
Tropical Storm Tracking
New forecast layout! Learn more

10-Day Weather Forecast

Advertisements
Track Severe Weather on mobile